Time;durP1;ratioP1;P1;durP2;ratioP2;P2;SDS_P1;SDS_P2;PMS_P1;PMS_P2;Temp;Humidity;BMP_temperature;BMP_pressure;BME280_temperature;BME280_humidity;BME280_pressure;Samples;Min_cycle;Max_cycle;Signal;HPM_P1;HPM_P2
2022/07/23 00:00:53;;;;;;;11.80;8.13;;;25.70;99.90;;;;;;1852005;75;21107;-80
2022/07/23 00:03:45;;;;;;;14.18;7.53;;;25.70;99.90;;;;;;1849424;75;21151;-80
2022/07/23 00:06:34;;;;;;;13.03;7.62;;;25.80;99.90;;;;;;1849693;75;21658;-79
2022/07/23 00:09:06;;;;;;;13.08;7.42;;;25.80;99.90;;;;;;1856595;76;21685;-80
2022/07/23 00:11:52;;;;;;;10.23;7.20;;;25.90;99.90;;;;;;1856777;76;21132;-79
2022/07/23 00:14:27;;;;;;;12.00;7.92;;;25.90;99.90;;;;;;1847533;76;21183;-79
2022/07/23 00:16:58;;;;;;;10.95;8.05;;;25.90;99.90;;;;;;1826542;77;21279;-78
2022/07/23 00:19:29;;;;;;;11.05;7.62;;;25.90;99.90;;;;;;1863917;75;21177;-79
2022/07/23 00:22:01;;;;;;;12.63;7.70;;;25.90;99.90;;;;;;1854392;75;21110;-80
2022/07/23 00:24:32;;;;;;;13.30;8.40;;;26.00;99.90;;;;;;1858293;77;21237;-79
2022/07/23 00:27:03;;;;;;;10.10;7.45;;;26.00;99.90;;;;;;1859115;76;21160;-79
2022/07/23 00:29:34;;;;;;;12.60;8.18;;;26.10;99.90;;;;;;1860113;75;21146;-79
2022/07/23 00:32:06;;;;;;;13.72;8.43;;;26.10;99.90;;;;;;1851279;76;21633;-80
2022/07/23 00:34:37;;;;;;;10.58;8.18;;;26.10;99.90;;;;;;1852510;76;21101;-80
2022/07/23 00:37:08;;;;;;;11.63;8.38;;;26.10;99.90;;;;;;1855539;75;21181;-79
2022/07/23 00:39:39;;;;;;;11.97;9.08;;;26.20;99.90;;;;;;1841859;75;21248;-79
2022/07/23 00:42:09;;;;;;;9.93;6.67;;;26.20;99.90;;;;;;1848319;76;21110;-79
2022/07/23 00:44:41;;;;;;;9.68;6.00;;;26.30;99.90;;;;;;1819441;77;21107;-80
2022/07/23 00:47:13;;;;;;;9.00;5.40;;;26.30;99.90;;;;;;1841231;76;21143;-79
2022/07/23 00:49:44;;;;;;;8.03;5.03;;;26.40;99.90;;;;;;1852123;75;21170;-79
2022/07/23 00:52:15;;;;;;;7.25;5.85;;;26.40;99.90;;;;;;1855398;75;21189;-79
2022/07/23 00:54:51;;;;;;;9.00;6.95;;;26.40;99.90;;;;;;1835917;77;21165;-79
2022/07/23 00:57:25;;;;;;;7.12;5.80;;;26.40;99.90;;;;;;1837362;76;21119;-80
2022/07/23 00:59:59;;;;;;;7.60;6.10;;;26.50;99.90;;;;;;1850594;76;21206;-79
2022/07/23 01:02:30;;;;;;;9.58;6.12;;;26.50;99.90;;;;;;1847531;75;21221;-79
2022/07/23 01:05:00;;;;;;;7.33;6.05;;;26.50;99.90;;;;;;1835789;77;21151;-80
2022/07/23 01:07:31;;;;;;;7.65;5.37;;;26.50;99.90;;;;;;1838733;76;21137;-81
2022/07/23 01:10:03;;;;;;;7.55;5.37;;;26.60;99.90;;;;;;1859171;76;21307;-80
2022/07/23 01:12:35;;;;;;;8.58;6.62;;;26.70;99.90;;;;;;1855582;76;21296;-80
2022/07/23 01:15:11;;;;;;;6.25;5.35;;;26.70;99.90;;;;;;1817810;78;21650;-80
2022/07/23 01:17:39;;;;;;;6.53;5.10;;;26.80;99.90;;;;;;1851375;75;21839;-82
2022/07/23 01:20:10;;;;;;;6.90;5.80;;;26.80;99.90;;;;;;1842459;76;21613;-79
2022/07/23 01:22:41;;;;;;;7.90;4.87;;;26.90;99.90;;;;;;1861759;75;21126;-79
2022/07/23 01:25:12;;;;;;;5.92;5.10;;;27.00;99.90;;;;;;1865027;76;21111;-70
2022/07/23 01:27:43;;;;;;;5.03;4.50;;;27.00;99.90;;;;;;1854239;75;21707;-70
2022/07/23 01:30:16;;;;;;;7.30;3.80;;;27.00;99.90;;;;;;1848986;76;21099;-70
2022/07/23 01:32:47;;;;;;;7.95;4.17;;;27.00;99.90;;;;;;1838274;76;21175;-70
2022/07/23 01:35:18;;;;;;;7.33;4.87;;;27.00;99.90;;;;;;1851969;75;21181;-71
2022/07/23 01:37:49;;;;;;;7.90;4.65;;;27.00;99.90;;;;;;1847889;76;21618;-72
2022/07/23 01:40:20;;;;;;;6.70;4.58;;;27.10;99.90;;;;;;1856974;75;21232;-71
2022/07/23 01:42:51;;;;;;;4.28;3.35;;;27.10;99.90;;;;;;1851565;75;21146;-71
2022/07/23 01:45:23;;;;;;;8.00;4.58;;;27.10;99.90;;;;;;1831018;76;21228;-70
2022/07/23 01:47:54;;;;;;;5.55;3.72;;;27.20;99.90;;;;;;1851662;75;21581;-71
2022/07/23 01:50:25;;;;;;;7.45;4.30;;;27.20;99.90;;;;;;1857251;76;21210;-71
2022/07/23 01:52:56;;;;;;;5.10;4.37;;;27.20;99.90;;;;;;1835279;75;21161;-71
2022/07/23 01:55:27;;;;;;;5.92;4.28;;;27.20;99.90;;;;;;1845289;76;21178;-72
2022/07/23 01:57:58;;;;;;;6.50;4.17;;;27.20;99.90;;;;;;1854817;76;21175;-70
2022/07/23 02:00:30;;;;;;;5.47;3.37;;;27.30;99.90;;;;;;1849797;76;21636;-72
2022/07/23 02:03:00;;;;;;;4.72;3.40;;;27.40;99.90;;;;;;1856115;76;21575;-71
2022/07/23 02:05:31;;;;;;;6.40;3.52;;;27.50;99.90;;;;;;1854492;75;21632;-70
2022/07/23 02:08:03;;;;;;;5.53;3.92;;;27.60;99.90;;;;;;1839061;77;21668;-71
2022/07/23 02:10:34;;;;;;;4.10;3.50;;;27.70;99.90;;;;;;1848756;76;21615;-71
2022/07/23 02:13:05;;;;;;;5.85;3.83;;;27.80;99.90;;;;;;1845570;76;21179;-70
2022/07/23 02:15:36;;;;;;;5.17;3.70;;;27.80;99.90;;;;;;1846060;77;21098;-71
2022/07/23 02:18:08;;;;;;;7.78;3.52;;;27.80;99.90;;;;;;1845366;76;21671;-71
2022/07/23 02:20:39;;;;;;;7.87;4.10;;;27.90;99.90;;;;;;1839212;76;21608;-70
2022/07/23 02:23:10;;;;;;;7.65;3.60;;;27.90;99.90;;;;;;1849918;76;21243;-71
2022/07/23 02:25:41;;;;;;;6.37;4.05;;;27.90;99.90;;;;;;1844970;76;21143;-70
2022/07/23 02:28:12;;;;;;;5.90;3.52;;;27.90;99.90;;;;;;1857237;76;21713;-70
2022/07/23 02:30:43;;;;;;;7.97;3.12;;;27.90;99.90;;;;;;1827685;76;21236;-71
2022/07/23 02:33:14;;;;;;;5.70;3.42;;;27.80;99.90;;;;;;1847043;76;21133;-70
2022/07/23 02:35:44;;;;;;;5.30;3.65;;;27.80;99.90;;;;;;1848698;76;21138;-70
2022/07/23 02:38:16;;;;;;;4.97;3.58;;;27.80;99.90;;;;;;1859987;76;21116;-70
2022/07/23 02:40:46;;;;;;;3.80;3.40;;;27.70;99.90;;;;;;1851043;75;21657;-70
2022/07/23 02:43:17;;;;;;;6.03;3.83;;;27.70;99.90;;;;;;1835561;77;21643;-71
2022/07/23 02:45:48;;;;;;;4.47;3.35;;;27.70;99.90;;;;;;1793294;78;21216;-70
2022/07/23 02:48:19;;;;;;;6.45;3.75;;;27.80;99.90;;;;;;1813242;78;21587;-70
2022/07/23 02:50:52;;;;;;;5.50;4.15;;;27.80;99.90;;;;;;1833409;76;21616;-70
2022/07/23 02:53:24;;;;;;;4.53;3.70;;;27.80;99.90;;;;;;1837275;76;21096;-70
2022/07/23 02:55:55;;;;;;;5.78;3.37;;;27.90;99.90;;;;;;1846760;76;21232;-71
2022/07/23 02:58:26;;;;;;;7.40;3.47;;;28.00;99.90;;;;;;1849846;76;21524;-71
2022/07/23 03:00:57;;;;;;;6.10;3.70;;;28.00;99.90;;;;;;1816034;78;21630;-70
2022/07/23 03:03:28;;;;;;;6.42;3.90;;;28.10;99.90;;;;;;1806775;77;21185;-70
2022/07/23 03:05:59;;;;;;;4.90;3.95;;;28.00;99.90;;;;;;1797569;78;21677;-70
2022/07/23 03:08:30;;;;;;;7.33;3.87;;;28.00;99.90;;;;;;1813485;78;21192;-70
2022/07/23 03:11:01;;;;;;;6.45;4.25;;;28.00;99.90;;;;;;1807220;78;21586;-70
2022/07/23 03:13:32;;;;;;;7.40;4.00;;;27.90;99.90;;;;;;1850417;75;21170;-71
2022/07/23 03:16:04;;;;;;;5.62;4.20;;;27.90;99.90;;;;;;1845328;76;21103;-70
2022/07/23 03:18:36;;;;;;;7.47;4.20;;;27.90;99.90;;;;;;1841443;76;21214;-70
2022/07/23 03:21:09;;;;;;;5.37;3.40;;;28.00;99.90;;;;;;1841383;76;21579;-70
2022/07/23 03:23:40;;;;;;;5.75;3.45;;;28.10;99.90;;;;;;1840726;77;21654;-70
2022/07/23 03:26:11;;;;;;;5.55;3.50;;;28.40;99.90;;;;;;1838133;76;21195;-70
2022/07/23 03:28:42;;;;;;;5.37;3.05;;;28.50;99.90;;;;;;1819414;77;21642;-72
2022/07/23 03:31:13;;;;;;;6.37;3.35;;;28.60;99.90;;;;;;1807089;78;21217;-72
2022/07/23 03:33:44;;;;;;;5.92;3.47;;;28.70;99.90;;;;;;1815554;77;21873;-73
2022/07/23 03:36:15;;;;;;;6.42;3.52;;;28.80;99.90;;;;;;1812752;78;21189;-72
2022/07/23 03:38:46;;;;;;;6.62;3.75;;;28.90;99.90;;;;;;1855534;76;21156;-72
2022/07/23 03:41:16;;;;;;;3.98;3.15;;;28.90;99.90;;;;;;1850789;76;21110;-73
2022/07/23 03:43:48;;;;;;;4.55;2.95;;;29.10;99.90;;;;;;1777915;78;21153;-70
2022/07/23 03:46:18;;;;;;;4.72;2.85;;;29.30;99.90;;;;;;1813875;77;21740;-70
2022/07/23 03:48:50;;;;;;;7.15;2.95;;;29.30;99.90;;;;;;1858615;75;21651;-70
2022/07/23 03:51:22;;;;;;;4.55;2.50;;;29.40;99.90;;;;;;1844647;76;21664;-70
2022/07/23 03:53:54;;;;;;;3.62;2.52;;;29.60;99.90;;;;;;1832327;76;21151;-69
2022/07/23 03:56:26;;;;;;;4.67;2.70;;;29.60;99.90;;;;;;1849018;76;21170;-70
2022/07/23 03:58:57;;;;;;;5.87;2.83;;;29.70;99.90;;;;;;1835529;76;21149;-71
2022/07/23 04:01:29;;;;;;;3.52;2.22;;;29.70;99.90;;;;;;1846909;76;21548;-71
2022/07/23 04:04:00;;;;;;;2.95;2.10;;;29.80;99.90;;;;;;1841162;76;21167;-70
2022/07/23 04:06:32;;;;;;;3.72;2.40;;;29.70;99.90;;;;;;1843642;76;21170;-70
2022/07/23 04:09:04;;;;;;;3.95;1.98;;;29.70;99.90;;;;;;1836866;77;21251;-69
2022/07/23 04:11:35;;;;;;;4.55;1.67;;;29.60;99.90;;;;;;1842103;76;21191;-70
2022/07/23 04:14:07;;;;;;;2.83;2.10;;;29.60;99.90;;;;;;1841620;76;21213;-69
2022/07/23 04:16:38;;;;;;;2.87;1.75;;;29.70;99.90;;;;;;1838261;76;21668;-71
2022/07/23 04:19:09;;;;;;;4.62;2.02;;;29.80;99.90;;;;;;1831795;76;21224;-69
2022/07/23 04:21:40;;;;;;;3.22;1.77;;;30.00;99.90;;;;;;1844666;76;21241;-70
2022/07/23 04:24:11;;;;;;;4.40;1.90;;;30.10;99.90;;;;;;1833179;76;21719;-70
2022/07/23 04:26:42;;;;;;;4.80;2.42;;;30.20;99.90;;;;;;1844923;76;21149;-70
2022/07/23 04:29:13;;;;;;;5.42;2.02;;;30.40;99.90;;;;;;1852862;76;21708;-70
2022/07/23 04:31:44;;;;;;;3.33;2.40;;;30.50;99.90;;;;;;1852025;76;21149;-70
2022/07/23 04:34:15;;;;;;;4.28;2.80;;;30.40;99.90;;;;;;1845030;76;21626;-70
2022/07/23 04:36:46;;;;;;;4.70;2.42;;;30.20;99.90;;;;;;1852453;76;21511;-72
2022/07/23 04:39:17;;;;;;;3.33;2.30;;;30.10;99.90;;;;;;1827322;76;21549;-72
2022/07/23 04:41:48;;;;;;;4.58;2.27;;;30.10;99.90;;;;;;1843350;76;21713;-71
2022/07/23 04:44:19;;;;;;;4.97;1.80;;;30.00;99.90;;;;;;1838012;76;21204;-72
2022/07/23 04:46:49;;;;;;;4.58;1.82;;;30.00;99.90;;;;;;1861394;75;21166;-71
2022/07/23 04:49:22;;;;;;;4.78;1.90;;;30.00;99.90;;;;;;1849905;75;21173;-73
2022/07/23 04:51:53;;;;;;;3.52;2.37;;;30.00;99.90;;;;;;1856317;76;21143;-72
2022/07/23 04:54:24;;;;;;;3.17;1.98;;;30.10;99.90;;;;;;1836827;76;21230;-72
2022/07/23 04:56:55;;;;;;;3.17;2.15;;;30.10;99.90;;;;;;1851839;76;21163;-73
2022/07/23 04:59:26;;;;;;;5.08;2.00;;;30.00;99.90;;;;;;1846043;76;21195;-73
2022/07/23 05:01:58;;;;;;;3.52;2.02;;;30.10;99.90;;;;;;1843986;76;21544;-73
2022/07/23 05:04:29;;;;;;;4.83;2.50;;;30.00;99.90;;;;;;1838833;76;21099;-72
2022/07/23 05:07:00;;;;;;;4.70;2.55;;;29.90;99.90;;;;;;1839331;76;21163;-70
2022/07/23 05:09:31;;;;;;;3.60;1.92;;;29.90;99.90;;;;;;1849589;76;21130;-71
2022/07/23 05:12:03;;;;;;;5.37;2.40;;;29.90;99.90;;;;;;1843980;76;21146;-71
2022/07/23 05:14:34;;;;;;;3.40;1.70;;;30.00;99.90;;;;;;1840458;77;21648;-71
2022/07/23 05:17:05;;;;;;;3.20;1.90;;;30.00;99.90;;;;;;1840655;76;21190;-70
2022/07/23 05:19:36;;;;;;;3.55;1.70;;;30.10;99.60;;;;;;1856513;76;21135;-71
2022/07/23 05:22:07;;;;;;;2.70;1.50;;;30.10;99.00;;;;;;1846622;76;21103;-70
2022/07/23 05:24:38;;;;;;;4.58;1.70;;;30.20;98.30;;;;;;1852671;76;21201;-71
2022/07/23 05:27:09;;;;;;;5.25;2.52;;;30.10;98.10;;;;;;1835612;76;21168;-71
2022/07/23 05:29:41;;;;;;;4.05;2.02;;;30.10;98.90;;;;;;1836745;76;21143;-70
2022/07/23 05:32:13;;;;;;;4.45;2.22;;;30.10;99.60;;;;;;1832379;76;21128;-73
2022/07/23 05:34:47;;;;;;;5.47;2.20;;;30.00;99.90;;;;;;1830283;76;21788;-71
2022/07/23 05:37:20;;;;;;;5.22;2.42;;;30.00;99.80;;;;;;1801190;76;21618;-70
2022/07/23 05:39:51;;;;;;;4.17;2.35;;;30.10;99.90;;;;;;1837394;76;21633;-71
2022/07/23 05:42:22;;;;;;;3.12;2.20;;;30.20;99.90;;;;;;1854638;76;21648;-72
2022/07/23 05:44:53;;;;;;;2.67;2.15;;;30.20;99.90;;;;;;1797140;78;21697;-71
2022/07/23 05:47:24;;;;;;;5.95;2.45;;;30.40;99.90;;;;;;1804411;77;21088;-70
2022/07/23 05:49:54;;;;;;;3.12;1.60;;;30.40;99.50;;;;;;1785404;78;21562;-71
2022/07/23 05:52:27;;;;;;;3.30;1.75;;;30.50;98.90;;;;;;1804381;78;21617;-72
2022/07/23 05:54:57;;;;;;;3.45;1.75;;;30.60;98.50;;;;;;1862801;75;21159;-71
2022/07/23 05:57:28;;;;;;;3.90;1.60;;;30.60;97.60;;;;;;1861292;75;21555;-71
2022/07/23 05:59:59;;;;;;;3.85;1.45;;;30.70;97.60;;;;;;1854651;75;21660;-72
2022/07/23 06:02:30;;;;;;;1.60;1.10;;;30.80;97.30;;;;;;1794314;78;21724;-71
2022/07/23 06:05:01;;;;;;;2.65;1.27;;;30.90;96.60;;;;;;1817467;78;21569;-71
2022/07/23 06:07:33;;;;;;;5.60;1.45;;;31.00;96.40;;;;;;1795578;79;21179;-71
2022/07/23 06:10:05;;;;;;;4.50;1.75;;;31.20;96.00;;;;;;1855559;75;21555;-70
2022/07/23 06:12:36;;;;;;;2.42;1.30;;;31.30;96.00;;;;;;1851759;76;21620;-71
2022/07/23 06:15:08;;;;;;;3.20;1.20;;;31.40;95.30;;;;;;1856264;76;21152;-71
2022/07/23 06:17:41;;;;;;;5.12;1.60;;;31.50;95.10;;;;;;1855445;76;21122;-71
2022/07/23 06:20:12;;;;;;;3.27;1.30;;;31.50;96.20;;;;;;1866696;75;21154;-71
2022/07/23 06:22:43;;;;;;;4.42;1.50;;;31.50;94.70;;;;;;1854881;76;21167;-71
2022/07/23 06:25:16;;;;;;;3.12;1.72;;;31.50;94.70;;;;;;1857640;76;21165;-70
2022/07/23 06:27:49;;;;;;;2.87;1.32;;;31.40;97.20;;;;;;1853362;76;21253;-71
2022/07/23 06:30:20;;;;;;;2.62;1.45;;;31.30;96.80;;;;;;1861154;77;21194;-70
2022/07/23 06:32:52;;;;;;;5.47;1.65;;;31.00;96.50;;;;;;1858906;76;21224;-70
2022/07/23 06:35:24;;;;;;;7.87;2.42;;;30.80;97.90;;;;;;1856033;76;21590;-70
2022/07/23 06:37:55;;;;;;;9.45;2.70;;;30.60;99.70;;;;;;1856804;77;21182;-72
2022/07/23 06:40:26;;;;;;;4.60;1.65;;;30.30;99.90;;;;;;1857427;76;21656;-71
2022/07/23 06:42:57;;;;;;;3.67;1.47;;;30.10;99.90;;;;;;1859039;76;21211;-72
2022/07/23 06:45:28;;;;;;;6.50;1.35;;;29.80;99.90;;;;;;1842393;77;21167;-72
2022/07/23 06:48:02;;;;;;;4.62;1.25;;;29.60;99.90;;;;;;1862295;76;21607;-72
2022/07/23 06:50:32;;;;;;;2.72;1.37;;;29.40;99.90;;;;;;1854965;76;21692;-72
2022/07/23 06:53:03;;;;;;;3.10;1.50;;;29.30;99.90;;;;;;1858769;76;21560;-71
2022/07/23 06:55:38;;;;;;;5.15;1.50;;;29.20;99.90;;;;;;1836301;77;21719;-73
2022/07/23 06:58:09;;;;;;;4.00;1.52;;;29.20;99.90;;;;;;1852032;76;21147;-73
2022/07/23 07:00:41;;;;;;;4.17;1.72;;;29.20;99.90;;;;;;1824138;77;21762;-73
2022/07/23 07:03:11;;;;;;;3.52;1.50;;;29.10;99.90;;;;;;1861774;76;21149;-73
2022/07/23 07:05:42;;;;;;;4.25;1.90;;;29.10;99.90;;;;;;1858328;76;21710;-72
2022/07/23 07:08:14;;;;;;;3.52;1.95;;;29.10;99.90;;;;;;1856028;77;21802;-72
2022/07/23 07:10:45;;;;;;;1.87;1.00;;;29.10;99.90;;;;;;1858717;76;21177;-73
2022/07/23 07:13:15;;;;;;;6.37;1.67;;;29.10;99.90;;;;;;1848619;76;21171;-74
2022/07/23 07:15:46;;;;;;;4.30;1.62;;;29.00;99.90;;;;;;1858029;76;21251;-74
2022/07/23 07:18:18;;;;;;;2.80;1.52;;;29.00;99.90;;;;;;1854082;76;21237;-74
2022/07/23 07:20:49;;;;;;;4.20;1.50;;;29.00;99.90;;;;;;1852737;76;21270;-73
2022/07/23 07:23:22;;;;;;;2.02;1.25;;;29.00;99.90;;;;;;1855217;76;21145;-76
2022/07/23 07:25:53;;;;;;;3.30;1.45;;;29.10;99.90;;;;;;1857282;76;21699;-73
2022/07/23 07:28:24;;;;;;;2.15;1.10;;;29.20;99.90;;;;;;1861955;76;21106;-71
2022/07/23 07:30:55;;;;;;;3.15;1.40;;;29.30;99.90;;;;;;1860901;76;21233;-72
2022/07/23 07:33:47;;;;;;;4.90;1.70;;;29.50;99.90;;;;;;1784843;78;21161;-72
2022/07/23 07:36:19;;;;;;;4.15;1.70;;;29.60;99.90;;;;;;1783381;80;21664;-73
2022/07/23 07:38:50;;;;;;;2.85;1.05;;;29.70;99.90;;;;;;1782189;79;21182;-73
2022/07/23 07:41:23;;;;;;;2.85;1.32;;;29.70;99.90;;;;;;1775434;80;21095;-73
2022/07/23 07:43:53;;;;;;;3.60;1.65;;;29.80;99.90;;;;;;1793935;79;21653;-74
2022/07/23 07:46:27;;;;;;;2.33;1.30;;;29.90;99.90;;;;;;1852041;76;21635;-73
2022/07/23 07:48:57;;;;;;;5.58;2.00;;;30.00;99.90;;;;;;1858212;76;21076;-74
2022/07/23 07:51:28;;;;;;;3.08;1.50;;;30.10;99.90;;;;;;1860767;76;22266;-74
2022/07/23 07:54:00;;;;;;;5.08;1.87;;;30.20;99.90;;;;;;1855858;77;21632;-74
2022/07/23 07:56:31;;;;;;;3.27;1.20;;;30.30;99.60;;;;;;1855281;76;21699;-73
2022/07/23 07:59:02;;;;;;;2.58;1.10;;;30.40;99.00;;;;;;1845333;76;21628;-73
2022/07/23 08:01:34;;;;;;;4.30;1.80;;;30.50;98.60;;;;;;1855295;76;21189;-76
2022/07/23 08:04:05;;;;;;;2.85;1.80;;;30.60;98.30;;;;;;1858269;77;21186;-73
2022/07/23 08:06:36;;;;;;;3.17;1.20;;;30.80;99.80;;;;;;1859152;76;21159;-74
2022/07/23 08:09:07;;;;;;;2.12;1.30;;;30.80;98.50;;;;;;1854656;76;21104;-73
2022/07/23 08:11:37;;;;;;;2.52;1.32;;;30.90;97.10;;;;;;1859429;76;21103;-72
2022/07/23 08:14:09;;;;;;;3.95;1.50;;;31.00;98.20;;;;;;1857127;76;21102;-74
2022/07/23 08:16:40;;;;;;;1.80;1.25;;;31.10;97.80;;;;;;1855245;76;21199;-75
2022/07/23 08:19:12;;;;;;;4.35;1.60;;;31.10;97.20;;;;;;1857806;76;21147;-72
2022/07/23 08:21:43;;;;;;;2.00;1.20;;;31.10;96.10;;;;;;1858816;76;21179;-72
2022/07/23 08:24:14;;;;;;;3.47;1.15;;;31.10;96.40;;;;;;1859704;76;21218;-71
2022/07/23 08:26:45;;;;;;;3.02;1.20;;;31.10;96.20;;;;;;1857641;76;21116;-72
2022/07/23 08:29:16;;;;;;;2.65;1.30;;;31.00;96.70;;;;;;1857762;76;21723;-73
2022/07/23 08:31:48;;;;;;;3.50;1.40;;;31.00;96.70;;;;;;1852959;75;21106;-72
2022/07/23 08:34:19;;;;;;;2.37;1.25;;;30.90;97.10;;;;;;1838103;76;21204;-72
2022/07/23 08:36:50;;;;;;;3.37;1.15;;;30.90;99.30;;;;;;1851890;76;21116;-72
2022/07/23 08:39:21;;;;;;;4.92;1.40;;;30.90;98.60;;;;;;1862498;76;21172;-73
2022/07/23 08:41:52;;;;;;;3.70;1.37;;;30.90;97.80;;;;;;1857675;76;21701;-73
2022/07/23 08:44:24;;;;;;;3.60;1.40;;;30.90;97.00;;;;;;1854486;77;21108;-73
2022/07/23 08:46:55;;;;;;;3.22;1.30;;;30.90;97.30;;;;;;1857634;76;21204;-72
2022/07/23 08:49:26;;;;;;;2.15;1.27;;;30.90;97.00;;;;;;1856121;76;21174;-72
2022/07/23 08:51:58;;;;;;;3.33;1.60;;;30.90;97.70;;;;;;1861640;76;21171;-73
2022/07/23 08:54:29;;;;;;;4.10;1.42;;;30.80;96.90;;;;;;1857077;76;22426;-72
2022/07/23 08:56:59;;;;;;;3.02;1.70;;;30.80;97.30;;;;;;1780162;78;21157;-73
2022/07/23 08:59:32;;;;;;;3.70;1.95;;;30.70;97.30;;;;;;1858899;76;21680;-72
2022/07/23 09:02:02;;;;;;;2.60;1.25;;;30.60;97.50;;;;;;1838241;76;21150;-72
2022/07/23 09:04:34;;;;;;;2.90;1.25;;;30.60;97.00;;;;;;1798032;77;21225;-72
2022/07/23 09:07:05;;;;;;;3.90;1.90;;;30.60;97.30;;;;;;1809455;78;21646;-72
2022/07/23 09:09:36;;;;;;;3.45;1.40;;;30.50;97.70;;;;;;1811423;77;21558;-72
2022/07/23 09:12:09;;;;;;;2.50;1.30;;;30.50;97.30;;;;;;1804251;78;21245;-71
2022/07/23 09:14:44;;;;;;;3.08;1.50;;;30.50;98.20;;;;;;1811439;77;21249;-73
2022/07/23 09:17:18;;;;;;;4.22;1.80;;;30.40;97.70;;;;;;1808539;77;21802;-74
2022/07/23 09:19:54;;;;;;;4.15;1.70;;;30.40;98.00;;;;;;1816461;77;21221;-73
2022/07/23 09:22:28;;;;;;;3.90;2.00;;;30.40;97.70;;;;;;1806482;77;21323;-73
2022/07/23 09:25:01;;;;;;;3.50;1.55;;;30.40;97.90;;;;;;1800053;78;21284;-73
2022/07/23 09:27:35;;;;;;;4.78;1.98;;;30.40;98.20;;;;;;1829856;75;21219;-73
2022/07/23 09:30:07;;;;;;;3.77;1.98;;;30.40;98.10;;;;;;1850715;76;21166;-71
2022/07/23 09:32:39;;;;;;;3.37;1.90;;;30.40;98.30;;;;;;1855240;76;21180;-73
2022/07/23 09:35:10;;;;;;;7.22;4.00;;;30.40;98.80;;;;;;1853553;76;21644;-71
2022/07/23 09:37:41;;;;;;;3.17;1.45;;;30.40;99.90;;;;;;1836683;76;21209;-73
2022/07/23 09:40:16;;;;;;;4.80;2.27;;;30.40;99.90;;;;;;1846291;76;21605;-72
2022/07/23 09:42:47;;;;;;;2.20;1.70;;;30.40;99.90;;;;;;1844120;76;21149;-72
2022/07/23 09:45:18;;;;;;;3.58;1.30;;;30.40;99.20;;;;;;1848649;76;21790;-72
2022/07/23 09:47:49;;;;;;;3.20;1.67;;;30.40;98.20;;;;;;1843881;76;21647;-72
2022/07/23 09:50:21;;;;;;;2.80;1.52;;;30.40;98.70;;;;;;1847306;77;21191;-72
2022/07/23 09:52:56;;;;;;;4.50;1.50;;;30.30;99.20;;;;;;1853896;76;21640;-73
2022/07/23 09:55:29;;;;;;;4.90;1.70;;;30.30;99.30;;;;;;1859700;76;21218;-73
2022/07/23 09:58:00;;;;;;;3.80;1.85;;;30.30;98.50;;;;;;1856893;75;21064;-71
2022/07/23 10:00:33;;;;;;;3.77;1.60;;;30.30;98.60;;;;;;1875003;76;21615;-72
2022/07/23 10:03:06;;;;;;;4.17;1.40;;;30.30;99.40;;;;;;1856872;75;21197;-72
2022/07/23 10:05:38;;;;;;;2.65;1.50;;;30.20;98.70;;;;;;1858865;75;21169;-72
2022/07/23 10:08:11;;;;;;;2.92;1.40;;;30.20;98.50;;;;;;1857258;75;21158;-73
2022/07/23 10:10:43;;;;;;;4.47;1.25;;;30.30;99.30;;;;;;1853396;75;21626;-73
2022/07/23 10:15:50;;;;;;;3.02;1.57;;;30.20;99.90;;;;;;1876037;75;21185;-72
2022/07/23 10:18:21;;;;;;;3.98;1.47;;;30.20;98.90;;;;;;1861082;75;21187;-72
2022/07/23 10:20:53;;;;;;;3.25;1.40;;;30.20;98.80;;;;;;1869239;75;21189;-71
2022/07/23 10:23:26;;;;;;;5.37;1.98;;;30.10;99.10;;;;;;1859186;75;21190;-77
2022/07/23 10:26:00;;;;;;;4.60;1.98;;;30.10;99.40;;;;;;1853440;76;21208;-79
2022/07/23 10:28:33;;;;;;;6.28;1.67;;;30.10;99.90;;;;;;1864764;75;21200;-80
2022/07/23 10:31:06;;;;;;;4.62;1.85;;;30.10;99.90;;;;;;1851939;77;21195;-82
2022/07/23 10:33:40;;;;;;;4.12;1.80;;;30.10;99.90;;;;;;1856479;76;21110;-80
2022/07/23 10:36:14;;;;;;;3.05;1.67;;;30.00;99.60;;;;;;1853405;76;21091;-80
2022/07/23 10:38:48;;;;;;;4.37;1.80;;;30.00;99.60;;;;;;1862050;75;21156;-80
2022/07/23 10:41:21;;;;;;;3.75;1.70;;;30.00;99.90;;;;;;1857098;75;21825;-79
2022/07/23 10:43:54;;;;;;;5.45;1.80;;;30.00;99.90;;;;;;1857598;75;21226;-79
2022/07/23 10:46:37;;;;;;;2.58;1.42;;;30.00;99.90;;;;;;1853136;76;21596;-78
2022/07/23 10:49:02;;;;;;;6.83;2.02;;;30.00;99.90;;;;;;1856955;76;21207;-79
2022/07/23 10:51:34;;;;;;;3.70;1.92;;;30.00;99.90;;;;;;1858856;76;21661;-80
2022/07/23 10:54:07;;;;;;;4.03;1.72;;;30.00;99.90;;;;;;1808766;77;21197;-79
2022/07/23 10:56:40;;;;;;;4.10;1.90;;;29.90;99.90;;;;;;1860951;76;21636;-79
2022/07/23 10:59:11;;;;;;;2.55;1.70;;;29.90;99.90;;;;;;1858663;76;21140;-79
2022/07/23 11:01:42;;;;;;;4.05;1.87;;;29.90;99.90;;;;;;1839220;76;21152;-79
2022/07/23 11:04:13;;;;;;;2.92;1.57;;;29.90;99.90;;;;;;1857205;76;21298;-79
2022/07/23 11:06:47;;;;;;;5.17;1.70;;;29.90;99.90;;;;;;1856823;77;21168;-79
2022/07/23 11:09:20;;;;;;;6.37;2.20;;;29.90;99.90;;;;;;1854618;76;21596;-79
2022/07/23 11:11:52;;;;;;;3.42;1.77;;;29.90;99.90;;;;;;1860203;76;21094;-78
2022/07/23 11:14:26;;;;;;;6.50;2.17;;;29.90;99.90;;;;;;1804384;78;21258;-79
2022/07/23 11:16:57;;;;;;;4.33;1.87;;;29.90;99.90;;;;;;1808162;77;21520;-79
2022/07/23 11:19:28;;;;;;;5.35;2.45;;;29.80;99.90;;;;;;1804749;77;21830;-80
2022/07/23 11:21:59;;;;;;;6.92;2.02;;;29.80;99.90;;;;;;1853885;76;21609;-80
2022/07/23 11:24:30;;;;;;;4.45;2.30;;;29.80;99.90;;;;;;1858726;76;21712;-80
2022/07/23 11:27:02;;;;;;;4.28;2.10;;;29.80;99.90;;;;;;1856090;76;21568;-80
2022/07/23 11:29:36;;;;;;;4.10;1.90;;;29.80;99.90;;;;;;1861911;76;21604;-79
2022/07/23 11:32:11;;;;;;;4.67;1.72;;;29.80;99.90;;;;;;1841324;76;21230;-80
2022/07/23 11:34:48;;;;;;;5.10;2.02;;;29.70;99.90;;;;;;1832668;76;21176;-79
2022/07/23 11:37:20;;;;;;;4.90;2.10;;;29.70;99.90;;;;;;1845624;76;21220;-79
2022/07/23 11:39:52;;;;;;;5.42;2.00;;;29.70;99.90;;;;;;1857513;76;21681;-79
2022/07/23 11:42:24;;;;;;;3.95;2.10;;;29.70;99.90;;;;;;1853219;76;21162;-80
2022/07/23 11:44:56;;;;;;;2.75;1.75;;;29.60;99.90;;;;;;1862115;76;21172;-80
2022/07/23 11:47:28;;;;;;;2.92;1.32;;;29.60;99.60;;;;;;1854166;76;21149;-79
2022/07/23 11:50:02;;;;;;;4.45;1.72;;;29.60;99.30;;;;;;1858120;76;21225;-78
2022/07/23 11:52:33;;;;;;;4.87;2.22;;;29.60;99.40;;;;;;1861159;76;21081;-79
2022/07/23 11:55:06;;;;;;;4.62;2.00;;;29.50;99.50;;;;;;1850173;76;21179;-79
2022/07/23 11:57:39;;;;;;;4.12;1.82;;;29.50;99.40;;;;;;1817854;77;21128;-81
2022/07/23 12:00:13;;;;;;;5.12;1.72;;;29.50;99.30;;;;;;1809848;77;21127;-81
2022/07/23 12:02:46;;;;;;;5.40;1.80;;;29.50;99.00;;;;;;1858356;75;21126;-82
2022/07/23 12:05:20;;;;;;;5.20;1.90;;;29.50;99.20;;;;;;1847039;76;21595;-80
2022/07/23 12:07:54;;;;;;;4.00;2.00;;;29.50;99.10;;;;;;1854538;75;21512;-81
2022/07/23 12:10:27;;;;;;;2.87;1.45;;;29.50;99.40;;;;;;1850927;76;21230;-80
2022/07/23 12:13:01;;;;;;;5.08;1.67;;;29.40;99.50;;;;;;1866661;76;21153;-80
2022/07/23 12:15:37;;;;;;;5.35;1.40;;;29.40;99.60;;;;;;1867601;75;21136;-80
2022/07/23 12:18:08;;;;;;;5.65;2.00;;;29.40;99.60;;;;;;1841953;76;21174;-80
2022/07/23 12:20:45;;;;;;;3.85;1.95;;;29.40;99.80;;;;;;1849568;75;21186;-80
2022/07/23 12:23:18;;;;;;;5.67;2.15;;;29.40;99.80;;;;;;1850218;75;21219;-81
2022/07/23 12:25:51;;;;;;;5.15;1.92;;;29.40;99.90;;;;;;1846194;75;21153;-80
2022/07/23 12:28:25;;;;;;;5.95;2.00;;;29.30;99.90;;;;;;1837507;76;21585;-81
2022/07/23 12:30:57;;;;;;;4.45;1.82;;;29.30;99.90;;;;;;1856972;76;21229;-80
2022/07/23 12:33:33;;;;;;;2.85;1.67;;;29.30;99.90;;;;;;1857749;76;21097;-81
2022/07/23 12:36:06;;;;;;;5.17;2.47;;;29.30;99.90;;;;;;1840609;76;21143;-83
2022/07/23 12:38:40;;;;;;;4.70;2.17;;;29.30;99.90;;;;;;1842279;76;21238;-80
2022/07/23 12:41:13;;;;;;;6.42;2.37;;;29.20;99.90;;;;;;1839723;76;21126;-79
2022/07/23 12:43:46;;;;;;;4.70;2.45;;;29.20;99.90;;;;;;1842983;76;21118;-79
2022/07/23 12:46:20;;;;;;;4.78;2.37;;;29.20;99.90;;;;;;1858493;76;21221;-81
2022/07/23 12:48:54;;;;;;;5.67;2.47;;;29.20;99.90;;;;;;1854270;76;21092;-81
2022/07/23 12:51:28;;;;;;;6.22;2.50;;;29.20;99.90;;;;;;1855273;76;21076;-83
2022/07/23 12:54:02;;;;;;;7.58;2.22;;;29.20;99.90;;;;;;1845074;76;21079;-82
2022/07/23 12:56:36;;;;;;;4.22;2.35;;;29.20;99.90;;;;;;1806129;77;21158;-82
2022/07/23 12:59:10;;;;;;;6.87;2.42;;;29.10;99.90;;;;;;1784972;78;21241;-82
2022/07/23 13:01:48;;;;;;;6.42;2.20;;;29.10;99.90;;;;;;1779113;79;21316;-82
2022/07/23 13:04:21;;;;;;;5.40;2.90;;;29.10;99.90;;;;;;1777345;79;21232;-80
2022/07/23 13:06:53;;;;;;;6.95;2.85;;;29.10;99.90;;;;;;1801390;78;21205;-80
2022/07/23 13:09:27;;;;;;;6.30;3.10;;;29.10;99.90;;;;;;1854330;76;21140;-79
2022/07/23 13:12:00;;;;;;;7.03;3.08;;;29.10;99.90;;;;;;1851460;76;21263;-81